sensor_id;sensor_type;location;lat;lon;timestamp;pressure;altitude;pressure_sealevel;temperature;humidity
16525;BME280;8375;33.594;-117.718;2023-09-12T00:02:12;99942.78;;;29.58;38.11
16525;BME280;8375;33.594;-117.718;2023-09-12T00:04:41;99944.56;;;29.52;37.36
16525;BME280;8375;33.594;-117.718;2023-09-12T00:07:09;99944.56;;;29.52;37.38
16525;BME280;8375;33.594;-117.718;2023-09-12T00:09:41;99948.31;;;29.51;34.99
16525;BME280;8375;33.594;-117.718;2023-09-12T00:12:15;99946.34;;;29.41;35.43
16525;BME280;8375;33.594;-117.718;2023-09-12T00:14:44;99940.44;;;29.39;35.25
16525;BME280;8375;33.594;-117.718;2023-09-12T00:17:12;99935.66;;;29.41;37.95
16525;BME280;8375;33.594;-117.718;2023-09-12T00:19:43;99936.84;;;29.33;38.52
16525;BME280;8375;33.594;-117.718;2023-09-12T00:22:11;99936.78;;;29.28;39.61
16525;BME280;8375;33.594;-117.718;2023-09-12T00:24:40;99936.44;;;29.19;39.50
16525;BME280;8375;33.594;-117.718;2023-09-12T00:27:09;99942.44;;;29.09;39.22
16525;BME280;8375;33.594;-117.718;2023-09-12T00:29:39;99933.25;;;29.00;39.30
16525;BME280;8375;33.594;-117.718;2023-09-12T00:32:07;99940.56;;;28.88;39.71
16525;BME280;8375;33.594;-117.718;2023-09-12T00:34:36;99936.09;;;28.76;40.25
16525;BME280;8375;33.594;-117.718;2023-09-12T00:37:05;99947.19;;;28.68;38.13
16525;BME280;8375;33.594;-117.718;2023-09-12T00:39:34;99950.59;;;28.63;39.09
16525;BME280;8375;33.594;-117.718;2023-09-12T00:42:03;99953.09;;;28.53;39.16
16525;BME280;8375;33.594;-117.718;2023-09-12T00:44:34;99962.91;;;28.47;40.21
16525;BME280;8375;33.594;-117.718;2023-09-12T00:47:05;99953.91;;;28.36;40.30
16525;BME280;8375;33.594;-117.718;2023-09-12T00:49:35;99958.94;;;28.33;43.06
16525;BME280;8375;33.594;-117.718;2023-09-12T00:52:05;99957.72;;;28.23;42.83
16525;BME280;8375;33.594;-117.718;2023-09-12T00:54:35;99960.53;;;28.17;42.70
16525;BME280;8375;33.594;-117.718;2023-09-12T00:57:05;99962.44;;;28.04;40.42
16525;BME280;8375;33.594;-117.718;2023-09-12T00:59:34;99958.22;;;27.91;41.56
16525;BME280;8375;33.594;-117.718;2023-09-12T01:02:06;99958.41;;;27.73;39.88
16525;BME280;8375;33.594;-117.718;2023-09-12T01:04:35;99946.50;;;27.63;38.90
16525;BME280;8375;33.594;-117.718;2023-09-12T01:07:06;99937.16;;;27.37;39.91
16525;BME280;8375;33.594;-117.718;2023-09-12T01:09:34;99936.97;;;27.27;40.23
16525;BME280;8375;33.594;-117.718;2023-09-12T01:12:04;99938.38;;;27.29;41.85
16525;BME280;8375;33.594;-117.718;2023-09-12T01:14:33;99936.28;;;27.31;42.61
16525;BME280;8375;33.594;-117.718;2023-09-12T01:17:02;99945.88;;;27.32;41.40
16525;BME280;8375;33.594;-117.718;2023-09-12T01:19:33;99949.25;;;27.28;43.04
16525;BME280;8375;33.594;-117.718;2023-09-12T01:22:23;99948.44;;;27.27;42.77
16525;BME280;8375;33.594;-117.718;2023-09-12T01:27:54;99950.91;;;27.17;43.08
16525;BME280;8375;33.594;-117.718;2023-09-12T01:30:25;99939.31;;;27.11;44.18
16525;BME280;8375;33.594;-117.718;2023-09-12T01:32:56;99939.00;;;27.07;44.15
16525;BME280;8375;33.594;-117.718;2023-09-12T01:35:25;99934.13;;;26.92;43.74
16525;BME280;8375;33.594;-117.718;2023-09-12T01:37:54;99934.59;;;26.89;43.22
16525;BME280;8375;33.594;-117.718;2023-09-12T01:40:29;99923.59;;;26.74;44.31
16525;BME280;8375;33.594;-117.718;2023-09-12T01:43:04;99925.34;;;26.68;45.39
16525;BME280;8375;33.594;-117.718;2023-09-12T01:45:34;99930.75;;;26.49;47.22
16525;BME280;8375;33.594;-117.718;2023-09-12T01:48:05;99941.13;;;26.39;50.44
16525;BME280;8375;33.594;-117.718;2023-09-12T01:50:35;99938.47;;;26.27;52.25
16525;BME280;8375;33.594;-117.718;2023-09-12T01:53:04;99933.69;;;26.17;53.61
16525;BME280;8375;33.594;-117.718;2023-09-12T01:55:34;99922.50;;;25.85;56.04
16525;BME280;8375;33.594;-117.718;2023-09-12T01:58:05;99922.56;;;25.78;57.67
16525;BME280;8375;33.594;-117.718;2023-09-12T02:00:34;99910.09;;;25.48;58.98
16525;BME280;8375;33.594;-117.718;2023-09-12T02:03:04;99900.28;;;25.30;59.84
16525;BME280;8375;33.594;-117.718;2023-09-12T02:05:33;99906.69;;;25.22;59.82
16525;BME280;8375;33.594;-117.718;2023-09-12T02:08:02;99909.22;;;25.17;60.54
16525;BME280;8375;33.594;-117.718;2023-09-12T02:10:31;99916.13;;;25.18;60.36
16525;BME280;8375;33.594;-117.718;2023-09-12T02:13:00;99908.47;;;25.10;61.04
16525;BME280;8375;33.594;-117.718;2023-09-12T02:15:30;99909.78;;;25.00;61.68
16525;BME280;8375;33.594;-117.718;2023-09-12T02:17:59;99916.13;;;24.99;61.81
16525;BME280;8375;33.594;-117.718;2023-09-12T02:20:30;99914.06;;;25.01;61.93
16525;BME280;8375;33.594;-117.718;2023-09-12T02:22:59;99911.56;;;25.07;62.16
16525;BME280;8375;33.594;-117.718;2023-09-12T02:25:28;99902.72;;;25.13;61.86
16525;BME280;8375;33.594;-117.718;2023-09-12T02:27:56;99895.19;;;25.10;61.92
16525;BME280;8375;33.594;-117.718;2023-09-12T02:30:25;99900.88;;;25.13;61.83
16525;BME280;8375;33.594;-117.718;2023-09-12T02:32:56;99896.97;;;24.97;62.65
16525;BME280;8375;33.594;-117.718;2023-09-12T02:35:27;99882.66;;;24.80;63.33
16525;BME280;8375;33.594;-117.718;2023-09-12T02:37:55;99873.75;;;24.67;63.25
16525;BME280;8375;33.594;-117.718;2023-09-12T02:40:25;99875.03;;;24.65;63.81
16525;BME280;8375;33.594;-117.718;2023-09-12T02:42:53;99865.44;;;24.64;63.47
16525;BME280;8375;33.594;-117.718;2023-09-12T02:45:24;99867.34;;;24.56;63.14
16525;BME280;8375;33.594;-117.718;2023-09-12T02:47:55;99886.44;;;24.65;63.14
16525;BME280;8375;33.594;-117.718;2023-09-12T02:50:24;99889.44;;;24.75;64.41
16525;BME280;8375;33.594;-117.718;2023-09-12T02:52:52;99883.69;;;24.79;63.95
16525;BME280;8375;33.594;-117.718;2023-09-12T02:55:21;99877.78;;;24.77;63.93
16525;BME280;8375;33.594;-117.718;2023-09-12T02:57:50;99877.19;;;24.74;64.54
16525;BME280;8375;33.594;-117.718;2023-09-12T03:00:19;99884.53;;;24.72;63.88
16525;BME280;8375;33.594;-117.718;2023-09-12T03:02:48;99892.56;;;24.66;64.44
16525;BME280;8375;33.594;-117.718;2023-09-12T03:05:19;99901.16;;;24.61;63.86
16525;BME280;8375;33.594;-117.718;2023-09-12T03:07:48;99907.75;;;24.58;64.24
16525;BME280;8375;33.594;-117.718;2023-09-12T03:10:17;99900.06;;;24.50;65.09
16525;BME280;8375;33.594;-117.718;2023-09-12T03:12:46;99912.66;;;24.55;65.18
16525;BME280;8375;33.594;-117.718;2023-09-12T03:15:15;99925.91;;;24.55;64.78
16525;BME280;8375;33.594;-117.718;2023-09-12T03:17:43;99926.50;;;24.57;63.88
16525;BME280;8375;33.594;-117.718;2023-09-12T03:20:12;99932.84;;;24.56;63.72
16525;BME280;8375;33.594;-117.718;2023-09-12T03:22:43;99942.50;;;24.50;63.07
16525;BME280;8375;33.594;-117.718;2023-09-12T03:25:12;99939.25;;;24.48;63.68
16525;BME280;8375;33.594;-117.718;2023-09-12T03:27:40;99929.72;;;24.40;63.46
16525;BME280;8375;33.594;-117.718;2023-09-12T03:30:10;99940.91;;;24.42;64.20
16525;BME280;8375;33.594;-117.718;2023-09-12T03:32:39;99962.13;;;24.42;65.16
16525;BME280;8375;33.594;-117.718;2023-09-12T03:35:08;99977.44;;;24.40;64.61
16525;BME280;8375;33.594;-117.718;2023-09-12T03:37:36;99984.38;;;24.41;62.05
16525;BME280;8375;33.594;-117.718;2023-09-12T03:40:09;99977.09;;;24.37;59.60
16525;BME280;8375;33.594;-117.718;2023-09-12T03:42:39;99969.13;;;24.37;59.31
16525;BME280;8375;33.594;-117.718;2023-09-12T03:45:08;99975.91;;;24.26;59.62
16525;BME280;8375;33.594;-117.718;2023-09-12T03:47:38;99987.63;;;24.11;60.95
16525;BME280;8375;33.594;-117.718;2023-09-12T03:50:07;99997.88;;;24.08;61.10
16525;BME280;8375;33.594;-117.718;2023-09-12T03:52:36;100015.16;;;24.10;61.12
16525;BME280;8375;33.594;-117.718;2023-09-12T03:55:05;100023.97;;;24.04;60.70
16525;BME280;8375;33.594;-117.718;2023-09-12T03:57:35;100010.50;;;23.99;59.71
16525;BME280;8375;33.594;-117.718;2023-09-12T04:00:05;100009.72;;;23.92;60.25
16525;BME280;8375;33.594;-117.718;2023-09-12T04:02:35;100035.03;;;23.87;60.35
16525;BME280;8375;33.594;-117.718;2023-09-12T04:05:04;100044.81;;;23.87;60.25
16525;BME280;8375;33.594;-117.718;2023-09-12T04:07:33;100043.63;;;23.76;59.01
16525;BME280;8375;33.594;-117.718;2023-09-12T04:10:02;100047.72;;;23.72;58.42
16525;BME280;8375;33.594;-117.718;2023-09-12T04:12:31;100051.63;;;23.63;57.93
16525;BME280;8375;33.594;-117.718;2023-09-12T04:15:02;100046.31;;;23.63;58.17
16525;BME280;8375;33.594;-117.718;2023-09-12T04:17:31;100064.84;;;23.63;58.57
16525;BME280;8375;33.594;-117.718;2023-09-12T04:20:00;100070.56;;;23.59;58.98
16525;BME280;8375;33.594;-117.718;2023-09-12T04:22:30;100077.91;;;23.57;61.08
16525;BME280;8375;33.594;-117.718;2023-09-12T04:24:59;100089.34;;;23.51;62.11
16525;BME280;8375;33.594;-117.718;2023-09-12T04:27:28;100077.94;;;23.37;63.95
16525;BME280;8375;33.594;-117.718;2023-09-12T04:29:57;100083.22;;;23.37;64.13
16525;BME280;8375;33.594;-117.718;2023-09-12T04:32:28;100099.53;;;23.27;64.81
16525;BME280;8375;33.594;-117.718;2023-09-12T04:34:57;100105.03;;;23.26;65.95
16525;BME280;8375;33.594;-117.718;2023-09-12T04:37:27;100088.94;;;23.27;66.33
16525;BME280;8375;33.594;-117.718;2023-09-12T04:39:56;100090.78;;;23.27;65.41
16525;BME280;8375;33.594;-117.718;2023-09-12T04:42:24;100084.69;;;23.26;65.31
16525;BME280;8375;33.594;-117.718;2023-09-12T04:44:53;100091.34;;;23.15;65.63
16525;BME280;8375;33.594;-117.718;2023-09-12T04:47:22;100098.69;;;23.13;66.80
16525;BME280;8375;33.594;-117.718;2023-09-12T04:49:53;100103.19;;;23.13;67.18
16525;BME280;8375;33.594;-117.718;2023-09-12T04:52:22;100101.94;;;23.15;67.34
16525;BME280;8375;33.594;-117.718;2023-09-12T04:54:50;100099.91;;;23.18;66.92
16525;BME280;8375;33.594;-117.718;2023-09-12T04:57:19;100096.88;;;23.14;66.72
16525;BME280;8375;33.594;-117.718;2023-09-12T04:59:48;100105.63;;;23.08;67.30
16525;BME280;8375;33.594;-117.718;2023-09-12T05:02:17;100093.00;;;23.10;67.99
16525;BME280;8375;33.594;-117.718;2023-09-12T05:04:46;100088.91;;;23.00;68.27
16525;BME280;8375;33.594;-117.718;2023-09-12T05:07:17;100084.44;;;22.94;68.18
16525;BME280;8375;33.594;-117.718;2023-09-12T05:09:50;100092.38;;;22.94;69.54
16525;BME280;8375;33.594;-117.718;2023-09-12T05:12:20;100087.69;;;22.96;70.51
16525;BME280;8375;33.594;-117.718;2023-09-12T05:14:50;100077.72;;;22.98;69.67
16525;BME280;8375;33.594;-117.718;2023-09-12T05:17:20;100072.63;;;22.90;68.98
16525;BME280;8375;33.594;-117.718;2023-09-12T05:19:50;100070.97;;;22.69;69.62
16525;BME280;8375;33.594;-117.718;2023-09-12T05:22:22;100073.63;;;22.62;70.31
16525;BME280;8375;33.594;-117.718;2023-09-12T05:24:51;100065.06;;;22.67;70.41
16525;BME280;8375;33.594;-117.718;2023-09-12T05:27:23;100056.91;;;22.55;71.05
16525;BME280;8375;33.594;-117.718;2023-09-12T05:29:52;100054.41;;;22.33;72.61
16525;BME280;8375;33.594;-117.718;2023-09-12T05:32:21;100058.06;;;22.32;73.54
16525;BME280;8375;33.594;-117.718;2023-09-12T05:34:50;100067.63;;;22.33;73.55
16525;BME280;8375;33.594;-117.718;2023-09-12T05:37:22;100069.66;;;22.38;73.69
16525;BME280;8375;33.594;-117.718;2023-09-12T05:40:04;100090.66;;;22.46;74.17
16525;BME280;8375;33.594;-117.718;2023-09-12T05:42:35;100128.09;;;22.50;74.75
16525;BME280;8375;33.594;-117.718;2023-09-12T05:45:06;100139.88;;;22.47;74.02
16525;BME280;8375;33.594;-117.718;2023-09-12T05:47:35;100127.88;;;22.45;73.61
16525;BME280;8375;33.594;-117.718;2023-09-12T05:50:08;100105.88;;;22.37;73.74
16525;BME280;8375;33.594;-117.718;2023-09-12T05:52:40;100093.00;;;22.21;74.49
16525;BME280;8375;33.594;-117.718;2023-09-12T05:55:11;100064.50;;;22.09;75.54
16525;BME280;8375;33.594;-117.718;2023-09-12T05:57:41;100025.78;;;21.88;76.56
16525;BME280;8375;33.594;-117.718;2023-09-12T06:00:15;99999.34;;;21.81;76.82
16525;BME280;8375;33.594;-117.718;2023-09-12T06:02:44;100002.16;;;21.73;77.43
16525;BME280;8375;33.594;-117.718;2023-09-12T06:05:13;100003.16;;;21.79;78.09
16525;BME280;8375;33.594;-117.718;2023-09-12T06:07:44;99988.16;;;21.86;78.44
16525;BME280;8375;33.594;-117.718;2023-09-12T06:10:16;99985.56;;;21.93;77.80
16525;BME280;8375;33.594;-117.718;2023-09-12T06:12:45;99994.31;;;22.00;77.88
16525;BME280;8375;33.594;-117.718;2023-09-12T06:15:14;100000.63;;;22.06;77.88
16525;BME280;8375;33.594;-117.718;2023-09-12T06:17:43;99993.13;;;22.09;77.55
16525;BME280;8375;33.594;-117.718;2023-09-12T06:20:12;99981.16;;;22.13;77.38
16525;BME280;8375;33.594;-117.718;2023-09-12T06:22:47;99991.69;;;22.07;78.19
16525;BME280;8375;33.594;-117.718;2023-09-12T06:25:18;100004.09;;;22.06;77.89
16525;BME280;8375;33.594;-117.718;2023-09-12T06:27:47;99998.41;;;22.09;76.96
16525;BME280;8375;33.594;-117.718;2023-09-12T06:30:19;99988.66;;;22.10;75.78
16525;BME280;8375;33.594;-117.718;2023-09-12T06:32:48;99982.97;;;22.06;75.80
16525;BME280;8375;33.594;-117.718;2023-09-12T06:35:18;99981.31;;;22.05;76.28
16525;BME280;8375;33.594;-117.718;2023-09-12T06:37:49;99982.97;;;22.06;76.54
16525;BME280;8375;33.594;-117.718;2023-09-12T06:40:17;99973.22;;;22.13;76.51
16525;BME280;8375;33.594;-117.718;2023-09-12T06:42:47;99958.16;;;22.14;76.52
16525;BME280;8375;33.594;-117.718;2023-09-12T06:45:16;99968.50;;;22.09;76.81
16525;BME280;8375;33.594;-117.718;2023-09-12T06:47:46;99972.59;;;22.11;77.35
16525;BME280;8375;33.594;-117.718;2023-09-12T06:50:15;99977.28;;;22.16;77.62
16525;BME280;8375;33.594;-117.718;2023-09-12T06:52:44;99993.34;;;22.15;77.38
16525;BME280;8375;33.594;-117.718;2023-09-12T06:55:15;99980.94;;;22.15;77.01
16525;BME280;8375;33.594;-117.718;2023-09-12T06:57:47;99973.63;;;22.10;76.73
16525;BME280;8375;33.594;-117.718;2023-09-12T07:00:16;99970.16;;;22.10;76.08
16525;BME280;8375;33.594;-117.718;2023-09-12T07:02:46;99977.88;;;22.11;76.92
16525;BME280;8375;33.594;-117.718;2023-09-12T07:05:15;99976.25;;;22.10;77.26
16525;BME280;8375;33.594;-117.718;2023-09-12T07:07:43;99970.97;;;22.10;76.61
16525;BME280;8375;33.594;-117.718;2023-09-12T07:10:14;99965.69;;;22.10;76.42
16525;BME280;8375;33.594;-117.718;2023-09-12T07:12:43;99964.03;;;22.03;76.86
16525;BME280;8375;33.594;-117.718;2023-09-12T07:15:12;99963.00;;;22.04;76.84
16525;BME280;8375;33.594;-117.718;2023-09-12T07:17:41;99964.66;;;22.05;75.97
16525;BME280;8375;33.594;-117.718;2023-09-12T07:20:11;99978.44;;;21.93;77.23
16525;BME280;8375;33.594;-117.718;2023-09-12T07:22:41;99968.88;;;21.92;78.07
16525;BME280;8375;33.594;-117.718;2023-09-12T07:25:11;99973.53;;;21.90;78.21
16525;BME280;8375;33.594;-117.718;2023-09-12T07:27:42;99971.50;;;21.86;77.89
16525;BME280;8375;33.594;-117.718;2023-09-12T07:30:12;99959.72;;;21.81;78.06
16525;BME280;8375;33.594;-117.718;2023-09-12T07:32:41;99965.34;;;21.65;78.62
16525;BME280;8375;33.594;-117.718;2023-09-12T07:35:10;99959.81;;;21.60;79.44
16525;BME280;8375;33.594;-117.718;2023-09-12T07:37:38;99954.53;;;21.60;78.74
16525;BME280;8375;33.594;-117.718;2023-09-12T07:40:14;99956.72;;;21.56;79.26
16525;BME280;8375;33.594;-117.718;2023-09-12T07:42:45;99956.94;;;21.54;80.19
16525;BME280;8375;33.594;-117.718;2023-09-12T07:45:13;99955.31;;;21.53;80.14
16525;BME280;8375;33.594;-117.718;2023-09-12T07:47:42;99959.13;;;21.51;80.31
16525;BME280;8375;33.594;-117.718;2023-09-12T07:50:11;99955.06;;;21.48;80.75
16525;BME280;8375;33.594;-117.718;2023-09-12T07:52:41;99951.19;;;21.44;80.93
16525;BME280;8375;33.594;-117.718;2023-09-12T07:55:15;99949.56;;;21.43;80.78
16525;BME280;8375;33.594;-117.718;2023-09-12T07:57:46;99943.44;;;21.36;80.61
16525;BME280;8375;33.594;-117.718;2023-09-12T08:00:15;99947.72;;;21.37;81.22
16525;BME280;8375;33.594;-117.718;2023-09-12T08:02:44;99940.72;;;21.22;82.09
16525;BME280;8375;33.594;-117.718;2023-09-12T08:05:12;99944.78;;;21.25;82.28
16525;BME280;8375;33.594;-117.718;2023-09-12T08:07:42;99947.59;;;21.17;82.83
16525;BME280;8375;33.594;-117.718;2023-09-12T08:10:15;99939.84;;;21.15;84.00
16525;BME280;8375;33.594;-117.718;2023-09-12T08:12:56;99929.28;;;21.15;83.80
16525;BME280;8375;33.594;-117.718;2023-09-12T08:15:30;99943.88;;;21.11;83.68
16525;BME280;8375;33.594;-117.718;2023-09-12T08:18:02;99938.59;;;21.11;84.12
16525;BME280;8375;33.594;-117.718;2023-09-12T08:20:31;99947.91;;;21.07;84.48
16525;BME280;8375;33.594;-117.718;2023-09-12T08:23:00;99943.03;;;21.04;84.31
16525;BME280;8375;33.594;-117.718;2023-09-12T08:25:34;99955.41;;;21.03;84.11
16525;BME280;8375;33.594;-117.718;2023-09-12T08:28:08;99955.19;;;20.98;83.88
16525;BME280;8375;33.594;-117.718;2023-09-12T08:30:44;99955.56;;;20.95;84.41
16525;BME280;8375;33.594;-117.718;2023-09-12T08:33:13;99968.13;;;20.93;83.78
16525;BME280;8375;33.594;-117.718;2023-09-12T08:35:41;99969.13;;;20.92;84.39
16525;BME280;8375;33.594;-117.718;2023-09-12T08:38:45;99971.41;;;20.95;84.09
16525;BME280;8375;33.594;-117.718;2023-09-12T08:41:14;99976.47;;;20.96;83.77
16525;BME280;8375;33.594;-117.718;2023-09-12T08:43:45;99968.13;;;20.93;83.83
16525;BME280;8375;33.594;-117.718;2023-09-12T08:46:15;99966.91;;;20.95;83.23
16525;BME280;8375;33.594;-117.718;2023-09-12T08:48:46;99968.13;;;20.93;82.70
16525;BME280;8375;33.594;-117.718;2023-09-12T08:51:15;99961.22;;;20.92;83.09
16525;BME280;8375;33.594;-117.718;2023-09-12T08:53:44;99957.34;;;20.88;82.98
16525;BME280;8375;33.594;-117.718;2023-09-12T08:56:12;99954.84;;;20.79;83.70
16525;BME280;8375;33.594;-117.718;2023-09-12T08:58:43;99961.66;;;20.74;84.76
16525;BME280;8375;33.594;-117.718;2023-09-12T09:01:13;99966.88;;;20.67;85.03
16525;BME280;8375;33.594;-117.718;2023-09-12T09:03:56;99971.66;;;20.57;85.12
16525;BME280;8375;33.594;-117.718;2023-09-12T09:06:26;99972.22;;;20.52;85.49
16525;BME280;8375;33.594;-117.718;2023-09-12T09:08:57;99961.06;;;20.50;85.63
16525;BME280;8375;33.594;-117.718;2023-09-12T09:11:32;99964.19;;;20.38;86.46
16525;BME280;8375;33.594;-117.718;2023-09-12T09:14:05;99962.78;;;20.36;86.54
16525;BME280;8375;33.594;-117.718;2023-09-12T09:16:35;99968.59;;;20.31;86.87
16525;BME280;8375;33.594;-117.718;2023-09-12T09:19:06;99966.78;;;20.32;86.72
16525;BME280;8375;33.594;-117.718;2023-09-12T09:21:37;99963.31;;;20.31;87.10
16525;BME280;8375;33.594;-117.718;2023-09-12T09:24:12;99968.53;;;20.25;86.78
16525;BME280;8375;33.594;-117.718;2023-09-12T09:26:44;99970.34;;;20.24;87.15
16525;BME280;8375;33.594;-117.718;2023-09-12T09:29:18;99955.28;;;20.18;87.09
16525;BME280;8375;33.594;-117.718;2023-09-12T09:31:48;99957.66;;;20.13;87.33
16525;BME280;8375;33.594;-117.718;2023-09-12T09:34:18;99957.78;;;20.04;87.81
16525;BME280;8375;33.594;-117.718;2023-09-12T09:36:49;99959.78;;;20.02;88.12
16525;BME280;8375;33.594;-117.718;2023-09-12T09:39:19;99955.88;;;19.98;88.08
16525;BME280;8375;33.594;-117.718;2023-09-12T09:41:48;99952.19;;;19.92;88.35
16525;BME280;8375;33.594;-117.718;2023-09-12T09:44:20;99954.19;;;19.90;88.84
16525;BME280;8375;33.594;-117.718;2023-09-12T09:46:53;99948.63;;;19.85;88.73
16525;BME280;8375;33.594;-117.718;2023-09-12T09:49:22;99951.44;;;19.84;88.81
16525;BME280;8375;33.594;-117.718;2023-09-12T09:51:51;99949.38;;;19.79;89.06
16525;BME280;8375;33.594;-117.718;2023-09-12T09:54:24;99964.91;;;19.74;89.24
16525;BME280;8375;33.594;-117.718;2023-09-12T09:56:55;99960.28;;;19.76;89.48
16525;BME280;8375;33.594;-117.718;2023-09-12T09:59:26;99950.28;;;19.71;89.30
16525;BME280;8375;33.594;-117.718;2023-09-12T10:01:56;99942.06;;;19.59;90.16
16525;BME280;8375;33.594;-117.718;2023-09-12T10:04:27;99954.56;;;19.57;90.46
16525;BME280;8375;33.594;-117.718;2023-09-12T10:06:57;99954.38;;;19.59;90.46
16525;BME280;8375;33.594;-117.718;2023-09-12T10:09:27;99946.78;;;19.49;90.31
16525;BME280;8375;33.594;-117.718;2023-09-12T10:11:56;99951.59;;;19.45;90.98
16525;BME280;8375;33.594;-117.718;2023-09-12T10:14:29;99974.75;;;19.50;91.28
16525;BME280;8375;33.594;-117.718;2023-09-12T10:17:01;99979.72;;;19.45;90.98
16525;BME280;8375;33.594;-117.718;2023-09-12T10:19:35;99962.41;;;19.35;91.36
16525;BME280;8375;33.594;-117.718;2023-09-12T10:22:10;99965.84;;;19.36;91.43
16525;BME280;8375;33.594;-117.718;2023-09-12T10:24:42;99966.03;;;19.34;91.60
16525;BME280;8375;33.594;-117.718;2023-09-12T10:27:13;99952.13;;;19.26;92.19
16525;BME280;8375;33.594;-117.718;2023-09-12T10:29:43;99952.13;;;19.26;93.09
16525;BME280;8375;33.594;-117.718;2023-09-12T10:32:14;99949.69;;;19.24;93.17
16525;BME280;8375;33.594;-117.718;2023-09-12T10:34:45;99938.91;;;19.19;93.00
16525;BME280;8375;33.594;-117.718;2023-09-12T10:37:16;99938.78;;;19.12;93.53
16525;BME280;8375;33.594;-117.718;2023-09-12T10:39:46;99937.50;;;19.08;93.49
16525;BME280;8375;33.594;-117.718;2023-09-12T10:42:15;99944.75;;;19.06;93.71
16525;BME280;8375;33.594;-117.718;2023-09-12T10:44:47;99935.78;;;19.00;93.74
16525;BME280;8375;33.594;-117.718;2023-09-12T10:47:16;99933.66;;;18.96;94.49
16525;BME280;8375;33.594;-117.718;2023-09-12T10:49:46;99938.13;;;18.95;95.40
16525;BME280;8375;33.594;-117.718;2023-09-12T10:52:24;99942.22;;;18.98;95.87
16525;BME280;8375;33.594;-117.718;2023-09-12T10:54:54;99945.38;;;18.93;95.81
16525;BME280;8375;33.594;-117.718;2023-09-12T10:57:22;99942.63;;;18.86;96.13
16525;BME280;8375;33.594;-117.718;2023-09-12T11:00:12;99939.91;;;18.80;96.42
16525;BME280;8375;33.594;-117.718;2023-09-12T11:02:41;99948.31;;;18.75;96.41
16525;BME280;8375;33.594;-117.718;2023-09-12T11:05:37;99946.88;;;18.72;96.13
16525;BME280;8375;33.594;-117.718;2023-09-12T11:08:06;99953.41;;;18.76;96.16
16525;BME280;8375;33.594;-117.718;2023-09-12T11:10:34;99951.28;;;18.72;96.55
16525;BME280;8375;33.594;-117.718;2023-09-12T11:13:03;99948.66;;;18.72;96.64
16525;BME280;8375;33.594;-117.718;2023-09-12T11:15:34;99950.94;;;18.75;97.51
16525;BME280;8375;33.594;-117.718;2023-09-12T11:18:06;99948.31;;;18.75;98.04
16525;BME280;8375;33.594;-117.718;2023-09-12T11:20:52;99938.97;;;18.72;97.71
16525;BME280;8375;33.594;-117.718;2023-09-12T11:23:21;99942.50;;;18.65;98.10
16525;BME280;8375;33.594;-117.718;2023-09-12T11:26:03;99944.13;;;18.66;98.85
16525;BME280;8375;33.594;-117.718;2023-09-12T11:28:33;99928.41;;;18.57;98.46
16525;BME280;8375;33.594;-117.718;2023-09-12T11:31:04;99937.13;;;18.58;98.31
16525;BME280;8375;33.594;-117.718;2023-09-12T11:33:34;99948.09;;;18.61;98.81
16525;BME280;8375;33.594;-117.718;2023-09-12T11:36:03;99941.28;;;18.52;98.58
16525;BME280;8375;33.594;-117.718;2023-09-12T11:38:35;99946.00;;;18.57;99.53
16525;BME280;8375;33.594;-117.718;2023-09-12T11:41:03;99948.31;;;18.52;99.62
16525;BME280;8375;33.594;-117.718;2023-09-12T11:43:32;99941.44;;;18.51;99.56
16525;BME280;8375;33.594;-117.718;2023-09-12T11:46:04;99942.78;;;18.46;99.59
16525;BME280;8375;33.594;-117.718;2023-09-12T11:48:34;99939.06;;;18.41;99.87
16525;BME280;8375;33.594;-117.718;2023-09-12T11:51:07;99936.72;;;18.46;100.00
16525;BME280;8375;33.594;-117.718;2023-09-12T11:53:36;99936.66;;;18.54;100.00
16525;BME280;8375;33.594;-117.718;2023-09-12T11:56:05;99937.66;;;18.53;100.00
16525;BME280;8375;33.594;-117.718;2023-09-12T11:58:34;99932.19;;;18.55;100.00
16525;BME280;8375;33.594;-117.718;2023-09-12T12:01:05;99942.06;;;18.53;100.00
16525;BME280;8375;33.594;-117.718;2023-09-12T12:03:34;99939.94;;;18.56;100.00
16525;BME280;8375;33.594;-117.718;2023-09-12T12:06:02;99938.66;;;18.52;100.00
16525;BME280;8375;33.594;-117.718;2023-09-12T12:08:35;99950.50;;;18.48;100.00
16525;BME280;8375;33.594;-117.718;2023-09-12T12:11:03;99947.69;;;18.50;100.00
16525;BME280;8375;33.594;-117.718;2023-09-12T12:13:33;99934.75;;;18.48;100.00
16525;BME280;8375;33.594;-117.718;2023-09-12T12:16:14;99934.91;;;18.46;100.00
16525;BME280;8375;33.594;-117.718;2023-09-12T12:18:43;99933.91;;;18.47;100.00
16525;BME280;8375;33.594;-117.718;2023-09-12T12:21:12;99939.34;;;18.46;100.00
16525;BME280;8375;33.594;-117.718;2023-09-12T12:23:40;99935.09;;;18.45;100.00
16525;BME280;8375;33.594;-117.718;2023-09-12T12:26:09;99943.47;;;18.40;100.00
16525;BME280;8375;33.594;-117.718;2023-09-12T12:28:38;99949.00;;;18.30;100.00
16525;BME280;8375;33.594;-117.718;2023-09-12T12:31:10;99958.31;;;18.33;100.00
16525;BME280;8375;33.594;-117.718;2023-09-12T12:33:39;99956.31;;;18.35;100.00
16525;BME280;8375;33.594;-117.718;2023-09-12T12:36:08;99961.63;;;18.27;100.00
16525;BME280;8375;33.594;-117.718;2023-09-12T12:38:37;99958.91;;;18.20;100.00
16525;BME280;8375;33.594;-117.718;2023-09-12T12:41:06;99956.78;;;18.15;100.00
16525;BME280;8375;33.594;-117.718;2023-09-12T12:43:35;99952.06;;;18.11;100.00
16525;BME280;8375;33.594;-117.718;2023-09-12T12:46:04;99956.03;;;18.07;100.00
16525;BME280;8375;33.594;-117.718;2023-09-12T12:48:43;99953.91;;;18.02;100.00
16525;BME280;8375;33.594;-117.718;2023-09-12T12:51:14;99955.06;;;17.99;100.00
16525;BME280;8375;33.594;-117.718;2023-09-12T12:53:44;99955.56;;;17.95;100.00
16525;BME280;8375;33.594;-117.718;2023-09-12T12:56:17;99947.19;;;17.99;100.00
16525;BME280;8375;33.594;-117.718;2023-09-12T12:58:48;99940.97;;;17.92;100.00